createdAt,value
2023-04-01T00:00:38.716Z,56.39
2023-04-01T00:01:38.723Z,56.63
2023-04-01T00:02:38.769Z,52.76
2023-04-01T00:03:38.876Z,51.40
2023-04-01T00:04:38.736Z,52.51
2023-04-01T00:05:38.691Z,53.91
2023-04-01T00:06:38.713Z,53.69
2023-04-01T00:07:38.700Z,55.73
2023-04-01T00:08:38.685Z,55.23
2023-04-01T00:09:38.664Z,54.90
2023-04-01T00:10:38.663Z,52.96
2023-04-01T00:11:38.650Z,52.11
2023-04-01T00:12:38.655Z,51.19
2023-04-01T00:13:38.670Z,54.30
2023-04-01T00:14:38.632Z,53.60
2023-04-01T00:15:38.638Z,54.05
2023-04-01T00:16:38.711Z,49.35
2023-04-01T00:17:38.657Z,53.31
2023-04-01T00:18:38.611Z,56.38
2023-04-01T00:19:38.599Z,56.28
2023-04-01T00:20:38.583Z,51.76
2023-04-01T00:21:38.599Z,53.73
2023-04-01T00:22:38.598Z,54.41
2023-04-01T00:23:38.568Z,51.51
2023-04-01T00:24:38.563Z,52.46
2023-04-01T00:25:38.565Z,52.33
2023-04-01T00:26:38.569Z,57.27
2023-04-01T00:27:38.548Z,52.42
2023-04-01T00:28:38.546Z,55.71
2023-04-01T00:29:38.536Z,53.35
2023-04-01T00:30:38.550Z,53.86
2023-04-01T00:31:38.564Z,51.33
2023-04-01T00:32:38.554Z,56.17
2023-04-01T00:33:38.505Z,53.89
2023-04-01T00:34:38.493Z,50.47
2023-04-01T00:35:38.515Z,49.87
2023-04-01T00:36:38.532Z,53.00
2023-04-01T00:37:39.395Z,51.94
2023-04-01T00:38:38.510Z,51.79
2023-04-01T00:39:38.478Z,53.54
2023-04-01T00:40:38.473Z,55.74
2023-04-01T00:41:38.516Z,54.55
2023-04-01T00:42:38.465Z,54.92
2023-04-01T00:43:38.461Z,53.37
2023-04-01T00:44:38.450Z,50.69
2023-04-01T00:45:38.436Z,50.60
2023-04-01T00:46:38.450Z,51.23
2023-04-01T00:47:38.414Z,51.29
2023-04-01T00:48:38.402Z,53.65
2023-04-01T00:49:38.404Z,55.90
2023-04-01T00:50:38.385Z,50.80
2023-04-01T00:51:38.388Z,53.89
2023-04-01T00:52:38.403Z,53.25
2023-04-01T00:53:38.383Z,55.36
2023-04-01T00:54:39.377Z,52.08
2023-04-01T00:55:38.361Z,55.43
2023-04-01T00:56:38.359Z,54.09
2023-04-01T00:57:38.349Z,54.20
2023-04-01T00:58:38.356Z,54.37
2023-04-01T00:59:38.342Z,51.52
2023-04-01T01:00:38.342Z,55.83
2023-04-01T01:01:38.338Z,52.43
2023-04-01T01:02:38.801Z,54.91
2023-04-01T01:03:38.306Z,52.79
2023-04-01T01:04:38.299Z,57.39
2023-04-01T01:05:48.420Z,56.72
2023-04-01T01:06:40.284Z,52.13
2023-04-01T01:07:38.289Z,53.21
2023-04-01T01:08:38.278Z,57.49
2023-04-01T01:09:38.289Z,54.15
2023-04-01T01:10:38.267Z,56.35
2023-04-01T01:11:43.181Z,52.08
2023-04-01T01:12:40.271Z,57.50
2023-04-01T01:13:38.250Z,51.07
2023-04-01T01:14:38.238Z,53.01
2023-04-01T01:15:38.225Z,54.28
2023-04-01T01:16:38.262Z,54.55
2023-04-01T01:17:38.259Z,55.15
2023-04-01T01:18:38.236Z,52.76
2023-04-01T01:19:38.199Z,54.47
2023-04-01T01:20:38.219Z,52.67
2023-04-01T01:21:38.194Z,50.98
2023-04-01T01:22:38.183Z,53.17
2023-04-01T01:23:38.187Z,49.50
2023-04-01T01:24:38.166Z,53.84
2023-04-01T01:25:38.161Z,57.00
2023-04-01T01:26:38.156Z,54.34
2023-04-01T01:27:38.146Z,53.95
2023-04-01T01:28:38.190Z,56.09
2023-04-01T01:29:38.134Z,55.36
2023-04-01T01:30:38.164Z,53.25
2023-04-01T01:31:38.119Z,53.83
2023-04-01T01:32:38.135Z,51.60
2023-04-01T01:33:38.110Z,49.62
2023-04-01T01:34:38.146Z,52.28
2023-04-01T01:35:38.100Z,55.32
2023-04-01T01:36:38.095Z,53.86
2023-04-01T01:37:38.081Z,53.91
2023-04-01T01:38:38.083Z,53.65
2023-04-01T01:39:38.071Z,56.35
2023-04-01T01:40:38.079Z,54.73
2023-04-01T01:41:38.065Z,54.80
2023-04-01T01:42:38.047Z,60.26
2023-04-01T01:43:38.034Z,56.57
2023-04-01T01:44:38.037Z,54.62
2023-04-01T01:45:38.120Z,52.55
2023-04-01T01:46:38.281Z,54.88
2023-04-01T01:47:38.180Z,52.48
2023-04-01T01:48:38.011Z,56.74
2023-04-01T01:49:37.997Z,54.46
2023-04-01T01:50:38.004Z,52.25
2023-04-01T01:51:38.001Z,56.32
2023-04-01T01:52:37.972Z,53.65
2023-04-01T01:53:37.976Z,52.87
2023-04-01T01:54:37.959Z,53.85
2023-04-01T01:55:37.984Z,51.52
2023-04-01T01:56:37.947Z,55.38
2023-04-01T01:57:37.962Z,53.37
2023-04-01T01:58:37.942Z,53.32
2023-04-01T01:59:37.930Z,58.13
2023-04-01T02:00:37.934Z,57.45
2023-04-01T02:01:37.974Z,57.40
2023-04-01T02:02:37.933Z,54.22
2023-04-01T02:03:37.896Z,55.67
2023-04-01T02:04:37.919Z,56.66
2023-04-01T02:05:37.894Z,51.89
2023-04-01T02:06:37.890Z,53.54
2023-04-01T02:07:37.877Z,56.59
2023-04-01T02:08:37.865Z,57.86
2023-04-01T02:09:37.864Z,54.45
2023-04-01T02:10:37.844Z,52.67
2023-04-01T02:11:37.856Z,52.19
2023-04-01T02:12:37.852Z,52.55
2023-04-01T02:13:37.837Z,53.85
2023-04-01T02:14:37.831Z,51.60
2023-04-01T02:15:37.863Z,51.26
2023-04-01T02:16:37.817Z,51.88
2023-04-01T02:17:37.822Z,54.07
2023-04-01T02:18:37.795Z,53.00
2023-04-01T02:19:37.787Z,50.80
2023-04-01T02:20:37.779Z,53.79
2023-04-01T02:21:37.768Z,49.84
2023-04-01T02:22:37.770Z,53.09
2023-04-01T02:23:37.788Z,55.12
2023-04-01T02:24:37.764Z,53.75
2023-04-01T02:25:37.742Z,50.79
2023-04-01T02:26:37.749Z,53.72
2023-04-01T02:27:37.730Z,52.52
2023-04-01T02:28:37.757Z,51.30
2023-04-01T02:29:37.769Z,52.35
2023-04-01T02:30:37.735Z,52.57
2023-04-01T02:31:37.755Z,54.90
2023-04-01T02:32:37.825Z,55.52
2023-04-01T02:33:37.717Z,53.31
2023-04-01T02:34:37.675Z,52.91
2023-04-01T02:35:37.683Z,52.94
2023-04-01T02:36:37.667Z,55.42
2023-04-01T02:37:40.375Z,55.12
2023-04-01T02:38:38.666Z,52.96
2023-04-01T02:39:37.668Z,52.31
2023-04-01T02:40:37.649Z,52.57
2023-04-01T02:41:37.634Z,52.05
2023-04-01T02:42:37.636Z,53.10
2023-04-01T02:43:37.646Z,54.75
2023-04-01T02:44:37.602Z,54.94
2023-04-01T02:45:37.611Z,52.27
2023-04-01T02:46:37.618Z,56.66
2023-04-01T02:47:37.627Z,52.90
2023-04-01T02:48:37.606Z,50.90
2023-04-01T02:49:37.596Z,55.01
2023-04-01T02:50:37.588Z,52.57
2023-04-01T02:51:37.567Z,53.49
2023-04-01T02:52:37.558Z,55.31
2023-04-01T02:53:37.555Z,56.53
2023-04-01T02:54:37.579Z,55.94
2023-04-01T02:55:37.547Z,56.41
2023-04-01T02:56:37.544Z,53.23
2023-04-01T02:57:37.521Z,56.28
2023-04-01T02:58:37.533Z,54.78
2023-04-01T02:59:37.531Z,54.73
2023-04-01T03:00:37.513Z,57.59
2023-04-01T03:01:37.509Z,54.12
2023-04-01T03:02:37.602Z,53.81
2023-04-01T03:03:37.547Z,57.69
2023-04-01T03:04:37.481Z,53.68
2023-04-01T03:05:37.482Z,54.02
2023-04-01T03:06:37.479Z,55.53
2023-04-01T03:07:37.457Z,53.36
2023-04-01T03:08:37.452Z,55.22
2023-04-01T03:09:37.450Z,56.03
2023-04-01T03:10:37.451Z,53.29
2023-04-01T03:11:37.454Z,53.46
2023-04-01T03:12:37.434Z,55.31
2023-04-01T03:13:37.424Z,55.68
2023-04-01T03:14:37.420Z,55.94
2023-04-01T03:15:37.411Z,54.76
2023-04-01T03:16:37.465Z,56.38
2023-04-01T03:17:37.436Z,55.62
2023-04-01T03:18:37.412Z,55.00
2023-04-01T03:19:37.391Z,57.65
2023-04-01T03:20:37.372Z,55.85
2023-04-01T03:21:37.392Z,55.21
2023-04-01T03:22:37.366Z,56.63
2023-04-01T03:23:37.357Z,57.19
2023-04-01T03:24:37.351Z,57.31
2023-04-01T03:25:37.335Z,56.40
2023-04-01T03:26:37.350Z,55.60
2023-04-01T03:27:37.357Z,56.27
2023-04-01T03:28:37.325Z,52.01
2023-04-01T03:29:37.427Z,57.39
2023-04-01T03:30:37.340Z,55.64
2023-04-01T03:31:37.308Z,54.25
2023-04-01T03:32:37.304Z,59.25
2023-04-01T03:33:37.282Z,55.05
2023-04-01T03:34:37.276Z,55.90
2023-04-01T03:35:37.262Z,58.05
2023-04-01T03:36:37.316Z,56.32
2023-04-01T03:37:37.277Z,58.38
2023-04-01T03:38:37.255Z,58.01
2023-04-01T03:39:37.230Z,54.91
2023-04-01T03:40:37.237Z,56.32
2023-04-01T03:41:37.228Z,56.04
2023-04-01T03:42:37.245Z,58.47
2023-04-01T03:43:37.219Z,54.93
2023-04-01T03:44:37.224Z,55.16
2023-04-01T03:45:37.197Z,54.92
2023-04-01T03:46:37.260Z,54.66
2023-04-01T03:47:37.246Z,56.47
2023-04-01T03:48:37.192Z,55.38
2023-04-01T03:49:37.197Z,54.74
2023-04-01T03:50:37.167Z,54.55
2023-04-01T03:51:37.181Z,54.61
2023-04-01T03:52:37.152Z,59.01
2023-04-01T03:53:37.146Z,57.10
2023-04-01T03:54:37.150Z,56.34
2023-04-01T03:55:37.129Z,55.77
2023-04-01T03:56:37.132Z,56.82
2023-04-01T03:57:37.164Z,54.26
2023-04-01T03:58:37.122Z,52.92
2023-04-01T03:59:37.138Z,57.43
2023-04-01T04:00:37.097Z,57.21
2023-04-01T04:01:37.100Z,55.17
2023-04-01T04:02:37.141Z,56.27
2023-04-01T04:03:37.177Z,55.96
2023-04-01T04:04:37.110Z,54.79
2023-04-01T04:05:37.073Z,57.47
2023-04-01T04:06:37.057Z,55.91
2023-04-01T04:07:37.046Z,56.86
2023-04-01T04:08:37.069Z,56.01
2023-04-01T04:09:37.061Z,56.06
2023-04-01T04:10:37.060Z,55.72
2023-04-01T04:11:37.020Z,59.41
2023-04-01T04:12:37.020Z,58.59
2023-04-01T04:13:37.022Z,57.34
2023-04-01T04:14:37.122Z,57.12
2023-04-01T04:15:36.999Z,58.52
2023-04-01T04:16:36.999Z,56.43
2023-04-01T04:17:37.057Z,56.69
2023-04-01T04:18:36.975Z,58.37
2023-04-01T04:19:36.970Z,60.43
2023-04-01T04:20:37.000Z,58.58
2023-04-01T04:21:37.000Z,59.24
2023-04-01T04:22:36.956Z,58.16
2023-04-01T04:23:36.952Z,58.82
2023-04-01T04:24:36.931Z,59.17
2023-04-01T04:25:36.964Z,59.36
2023-04-01T04:26:36.917Z,57.13
2023-04-01T04:27:36.913Z,61.98
2023-04-01T04:28:36.915Z,60.07
2023-04-01T04:29:36.911Z,60.33
2023-04-01T04:30:36.903Z,57.09
2023-04-01T04:31:36.924Z,58.57
2023-04-01T04:32:36.946Z,58.21
2023-04-01T04:33:36.892Z,58.45
2023-04-01T04:34:36.867Z,59.75
2023-04-01T04:35:36.889Z,59.83
2023-04-01T04:36:36.874Z,58.73
2023-04-01T04:37:36.866Z,59.22
2023-04-01T04:38:36.838Z,59.02
2023-04-01T04:39:36.834Z,59.56
2023-04-01T04:40:36.833Z,57.45
2023-04-01T04:41:37.734Z,57.70
2023-04-01T04:42:36.868Z,58.24
2023-04-01T04:43:36.817Z,58.71
2023-04-01T04:44:36.816Z,59.47
2023-04-01T04:45:36.811Z,58.11
2023-04-01T04:46:36.842Z,58.36
2023-04-01T04:47:36.821Z,58.70
2023-04-01T04:48:36.800Z,58.60
2023-04-01T04:49:36.769Z,56.38
2023-04-01T04:50:36.758Z,57.10
2023-04-01T04:51:36.769Z,57.27
2023-04-01T04:52:36.761Z,56.96
2023-04-01T04:53:36.747Z,58.34
2023-04-01T04:54:36.758Z,60.50
2023-04-01T04:55:36.722Z,56.97
2023-04-01T04:56:36.716Z,58.19
2023-04-01T04:57:36.715Z,54.98
2023-04-01T04:58:36.759Z,57.31
2023-04-01T04:59:36.693Z,54.62
2023-04-01T05:00:36.678Z,56.15
2023-04-01T05:01:36.714Z,55.41
2023-04-01T05:02:36.740Z,57.88
2023-04-01T05:03:36.738Z,56.25
2023-04-01T05:04:36.664Z,56.03
2023-04-01T05:05:36.650Z,53.53
2023-04-01T05:06:36.669Z,58.00
2023-04-01T05:07:36.632Z,57.78
2023-04-01T05:08:36.624Z,57.69
2023-04-01T05:09:36.613Z,58.08
2023-04-01T05:10:36.611Z,57.99
2023-04-01T05:11:36.619Z,58.91
2023-04-01T05:12:36.600Z,59.56
2023-04-01T05:13:36.605Z,59.31
2023-04-01T05:14:36.585Z,57.22
2023-04-01T05:15:36.611Z,60.03
2023-04-01T05:16:36.628Z,56.30
2023-04-01T05:17:36.605Z,58.12
2023-04-01T05:18:36.559Z,58.92
2023-04-01T05:19:36.554Z,59.01
2023-04-01T05:20:36.540Z,58.16
2023-04-01T05:21:36.540Z,58.56
2023-04-01T05:22:36.548Z,57.70
2023-04-01T05:23:36.568Z,59.05
2023-04-01T05:24:36.521Z,56.97
2023-04-01T05:25:36.517Z,59.13
2023-04-01T05:26:36.503Z,58.16
2023-04-01T05:27:36.512Z,59.32
2023-04-01T05:28:36.494Z,58.66
2023-04-01T05:29:36.522Z,58.31
2023-04-01T05:30:36.499Z,61.04
2023-04-01T05:31:36.474Z,57.44
2023-04-01T05:32:36.563Z,56.21
2023-04-01T05:33:36.479Z,57.73
2023-04-01T05:34:36.451Z,59.16
2023-04-01T05:35:36.782Z,60.16
2023-04-01T05:36:36.445Z,58.66
2023-04-01T05:37:36.445Z,60.31
2023-04-01T05:38:36.447Z,58.69
2023-04-01T05:39:36.426Z,57.93
2023-04-01T05:40:36.441Z,60.10
2023-04-01T05:41:36.404Z,59.47
2023-04-01T05:42:38.168Z,57.75
2023-04-01T05:43:36.392Z,59.07
2023-04-01T05:44:36.404Z,57.34
2023-04-01T05:45:36.379Z,58.92
2023-04-01T05:46:36.533Z,58.15
2023-04-01T05:47:36.445Z,59.20
2023-04-01T05:48:36.364Z,57.19
2023-04-01T05:49:36.364Z,56.88
2023-04-01T05:50:36.340Z,60.27
2023-04-01T05:51:36.342Z,56.89
2023-04-01T05:52:36.343Z,59.47
2023-04-01T05:53:36.317Z,60.69
2023-04-01T05:54:36.321Z,59.33
2023-04-01T05:55:36.301Z,58.60
2023-04-01T05:56:36.312Z,59.89
2023-04-01T05:57:36.447Z,59.81
2023-04-01T05:58:36.304Z,58.29
2023-04-01T05:59:36.304Z,58.66
2023-04-01T06:00:36.278Z,57.03
2023-04-01T06:01:36.289Z,59.60
2023-04-01T06:02:36.337Z,59.50
2023-04-01T06:03:36.453Z,57.19
2023-04-01T06:04:36.299Z,60.29
2023-04-01T06:05:36.239Z,58.27
2023-04-01T06:06:36.241Z,58.19
2023-04-01T06:07:36.217Z,57.93
2023-04-01T06:08:36.226Z,59.66
2023-04-01T06:09:36.221Z,57.09
2023-04-01T06:10:36.223Z,58.29
2023-04-01T06:11:36.210Z,60.49
2023-04-01T06:12:36.218Z,58.86
2023-04-01T06:13:36.192Z,58.94
2023-04-01T06:14:36.197Z,57.22
2023-04-01T06:15:36.168Z,59.96
2023-04-01T06:16:36.215Z,59.82
2023-04-01T06:17:36.200Z,61.17
2023-04-01T06:18:36.147Z,58.36
2023-04-01T06:19:36.168Z,59.34
2023-04-01T06:20:36.146Z,58.20
2023-04-01T06:21:36.995Z,57.13
2023-04-01T06:22:36.141Z,59.73
2023-04-01T06:23:36.169Z,59.41
2023-04-01T06:24:36.145Z,59.21
2023-04-01T06:25:36.326Z,60.42
2023-04-01T06:26:36.102Z,60.78
2023-04-01T06:27:36.123Z,60.76
2023-04-01T06:28:36.098Z,58.65
2023-04-01T06:29:36.103Z,58.14
2023-04-01T06:30:36.138Z,58.89
2023-04-01T06:31:36.113Z,58.67
2023-04-01T06:32:36.117Z,57.83
2023-04-01T06:33:36.056Z,60.68
2023-04-01T06:34:36.041Z,59.22
2023-04-01T06:35:36.411Z,59.88
2023-04-01T06:36:36.126Z,58.40
2023-04-01T06:37:36.060Z,59.98
2023-04-01T06:38:36.018Z,58.57
2023-04-01T06:39:36.018Z,59.90
2023-04-01T06:40:36.011Z,60.10
2023-04-01T06:41:36.016Z,59.41
2023-04-01T06:42:35.997Z,58.62
2023-04-01T06:43:35.990Z,60.34
2023-04-01T06:44:36.000Z,60.78
2023-04-01T06:45:36.276Z,60.48
2023-04-01T06:46:36.025Z,59.31
2023-04-01T06:47:35.967Z,59.88
2023-04-01T06:48:35.952Z,59.40
2023-04-01T06:49:35.948Z,58.94
2023-04-01T06:50:35.942Z,60.50
2023-04-01T06:51:35.935Z,59.22
2023-04-01T06:52:35.929Z,58.43
2023-04-01T06:53:35.934Z,60.27
2023-04-01T06:54:35.919Z,59.78
2023-04-01T06:55:35.896Z,58.08
2023-04-01T06:56:35.896Z,59.21
2023-04-01T06:57:35.917Z,57.43
2023-04-01T06:58:35.887Z,58.81
2023-04-01T06:59:35.885Z,59.62
2023-04-01T07:00:35.862Z,58.89
2023-04-01T07:01:35.897Z,59.06
2023-04-01T07:02:35.895Z,60.70
2023-04-01T07:03:35.845Z,60.45
2023-04-01T07:04:35.894Z,59.79
2023-04-01T07:05:35.841Z,60.60
2023-04-01T07:06:35.834Z,59.17
2023-04-01T07:07:35.821Z,60.32
2023-04-01T07:08:35.834Z,59.09
2023-04-01T07:09:35.832Z,60.14
2023-04-01T07:10:35.808Z,60.35
2023-04-01T07:11:35.806Z,60.94
2023-04-01T07:12:35.794Z,59.16
2023-04-01T07:13:35.794Z,57.87
2023-04-01T07:14:35.785Z,60.74
2023-04-01T07:15:35.763Z,59.41
2023-04-01T07:16:35.809Z,57.98
2023-04-01T07:17:35.785Z,61.12
2023-04-01T07:18:35.745Z,59.05
2023-04-01T07:19:35.749Z,58.37
2023-04-01T07:20:35.734Z,60.20
2023-04-01T07:21:35.722Z,59.40
2023-04-01T07:22:35.732Z,59.79
2023-04-01T07:23:35.713Z,58.91
2023-04-01T07:24:35.757Z,60.12
2023-04-01T07:25:36.022Z,59.82
2023-04-01T07:26:35.704Z,59.06
2023-04-01T07:27:35.684Z,59.76
2023-04-01T07:28:35.682Z,60.21
2023-04-01T07:29:35.686Z,60.58
2023-04-01T07:30:35.664Z,60.80
2023-04-01T07:31:35.720Z,59.53
2023-04-01T07:32:36.373Z,60.86
2023-04-01T07:33:36.643Z,59.55
2023-04-01T07:34:35.644Z,60.13
2023-04-01T07:35:35.824Z,59.79
2023-04-01T07:36:35.664Z,60.80
2023-04-01T07:37:35.631Z,59.33
2023-04-01T07:38:35.634Z,61.66
2023-04-01T07:39:35.661Z,61.60
2023-04-01T07:40:35.607Z,59.99
2023-04-01T07:41:35.599Z,59.79
2023-04-01T07:42:35.598Z,60.10
2023-04-01T07:43:35.579Z,60.72
2023-04-01T07:44:35.573Z,59.91
2023-04-01T07:45:35.908Z,59.68
2023-04-01T07:46:35.652Z,60.89
2023-04-01T07:47:35.590Z,58.77
2023-04-01T07:48:35.559Z,61.92
2023-04-01T07:49:35.549Z,61.49
2023-04-01T07:50:35.538Z,61.09
2023-04-01T07:51:35.539Z,60.09
2023-04-01T07:52:35.547Z,59.87
2023-04-01T07:53:35.520Z,62.10
2023-04-01T07:54:35.516Z,59.03
2023-04-01T07:55:35.865Z,58.33
2023-04-01T07:56:35.497Z,61.16
2023-04-01T07:57:35.534Z,61.56
2023-04-01T07:58:35.540Z,58.85
2023-04-01T07:59:35.473Z,59.60
2023-04-01T08:00:35.491Z,59.51
2023-04-01T08:01:35.460Z,60.46
2023-04-01T08:02:35.577Z,60.14
2023-04-01T08:03:35.594Z,59.09
2023-04-01T08:04:35.481Z,59.98
2023-04-01T08:05:35.706Z,58.08
2023-04-01T08:06:35.437Z,60.98
2023-04-01T08:07:35.438Z,62.22
2023-04-01T08:08:35.421Z,61.03
2023-04-01T08:09:35.416Z,59.17
2023-04-01T08:10:35.438Z,60.47
2023-04-01T08:11:35.399Z,59.52
2023-04-01T08:12:35.408Z,59.50
2023-04-01T08:13:35.388Z,60.32
2023-04-01T08:14:35.381Z,61.15
2023-04-01T08:15:35.632Z,59.94
2023-04-01T08:16:35.431Z,58.81
2023-04-01T08:17:35.369Z,59.50
2023-04-01T08:18:35.344Z,60.22
2023-04-01T08:19:35.346Z,59.64
2023-04-01T08:20:35.342Z,59.84
2023-04-01T08:21:35.338Z,59.75
2023-04-01T08:22:35.330Z,59.34
2023-04-01T08:23:35.318Z,59.52
2023-04-01T08:24:46.440Z,61.04
2023-04-01T08:25:37.315Z,60.84
2023-04-01T08:26:35.313Z,58.51
2023-04-01T08:27:35.304Z,61.00
2023-04-01T08:28:35.271Z,59.65
2023-04-01T08:29:35.275Z,60.27
2023-04-01T08:30:35.270Z,60.42
2023-04-01T08:31:35.291Z,60.63
2023-04-01T08:32:35.321Z,60.62
2023-04-01T08:33:35.247Z,61.64
2023-04-01T08:34:35.241Z,59.34
2023-04-01T08:35:37.633Z,60.97
2023-04-01T08:36:35.284Z,59.95
2023-04-01T08:37:35.207Z,59.47
2023-04-01T08:38:35.203Z,60.23
2023-04-01T08:39:35.254Z,61.74
2023-04-01T08:40:35.203Z,58.74
2023-04-01T08:41:35.214Z,59.07
2023-04-01T08:42:35.201Z,60.67
2023-04-01T08:43:35.172Z,60.38
2023-04-01T08:44:35.171Z,60.89
2023-04-01T08:45:35.404Z,61.63
2023-04-01T08:46:35.164Z,60.34
2023-04-01T08:47:35.197Z,57.41
2023-04-01T08:48:35.152Z,59.28
2023-04-01T08:49:35.146Z,60.44
2023-04-01T08:50:35.163Z,59.56
2023-04-01T08:51:35.260Z,61.50
2023-04-01T08:52:35.122Z,61.01
2023-04-01T08:53:35.103Z,58.82
2023-04-01T08:54:35.120Z,58.71
2023-04-01T08:55:35.454Z,59.11
2023-04-01T08:56:35.108Z,60.50
2023-04-01T08:57:35.124Z,61.35
2023-04-01T08:58:35.090Z,59.06
2023-04-01T08:59:35.087Z,60.00
2023-04-01T09:00:35.078Z,59.97
2023-04-01T09:01:35.057Z,59.97
2023-04-01T09:02:35.155Z,59.00
2023-04-01T09:03:35.180Z,61.00
2023-04-01T09:04:36.170Z,60.83
2023-04-01T09:05:35.286Z,61.50
2023-04-01T09:06:35.040Z,59.41
2023-04-01T09:07:35.038Z,61.19
2023-04-01T09:08:35.017Z,62.23
2023-04-01T09:09:35.201Z,60.53
2023-04-01T09:10:35.010Z,61.32
2023-04-01T09:11:35.029Z,60.11
2023-04-01T09:12:35.008Z,61.08
2023-04-01T09:13:34.994Z,60.79
2023-04-01T09:14:35.007Z,59.79
2023-04-01T09:15:35.251Z,58.43
2023-04-01T09:16:35.066Z,59.52
2023-04-01T09:17:35.003Z,59.15
2023-04-01T09:18:34.989Z,60.71
2023-04-01T09:19:34.993Z,60.83
2023-04-01T09:20:34.947Z,61.00
2023-04-01T09:21:34.968Z,60.82
2023-04-01T09:22:34.946Z,60.79
2023-04-01T09:23:34.945Z,59.55
2023-04-01T09:24:34.963Z,61.15
2023-04-01T09:25:35.165Z,60.88
2023-04-01T09:26:34.922Z,59.96
2023-04-01T09:27:34.938Z,61.55
2023-04-01T09:28:34.926Z,60.49
2023-04-01T09:29:34.910Z,59.14
2023-04-01T09:30:34.988Z,58.31
2023-04-01T09:31:34.999Z,60.72
2023-04-01T09:32:34.906Z,61.20
2023-04-01T09:33:34.917Z,58.03
2023-04-01T09:34:34.868Z,60.13
2023-04-01T09:35:35.168Z,60.86
2023-04-01T09:36:34.868Z,61.23
2023-04-01T09:37:34.855Z,60.20
2023-04-01T09:38:34.856Z,61.10
2023-04-01T09:39:34.861Z,59.64
2023-04-01T09:40:34.824Z,58.58
2023-04-01T09:41:34.833Z,59.71
2023-04-01T09:42:34.817Z,60.59
2023-04-01T09:43:34.829Z,60.05
2023-04-01T09:44:34.822Z,60.95
2023-04-01T09:45:35.038Z,60.84
2023-04-01T09:46:34.825Z,61.10
2023-04-01T09:47:34.795Z,61.12
2023-04-01T09:48:34.789Z,61.46
2023-04-01T09:49:34.781Z,61.81
2023-04-01T09:50:34.809Z,61.67
2023-04-01T09:51:34.757Z,60.53
2023-04-01T09:52:34.759Z,59.99
2023-04-01T09:53:34.780Z,60.13
2023-04-01T09:54:34.780Z,61.42
2023-04-01T09:55:35.046Z,60.83
2023-04-01T09:56:34.724Z,59.97
2023-04-01T09:57:34.801Z,62.60
2023-04-01T09:58:34.726Z,60.68
2023-04-01T09:59:36.813Z,61.61
2023-04-01T10:00:34.758Z,62.88
2023-04-01T10:01:34.709Z,61.78
2023-04-01T10:02:34.742Z,62.48
2023-04-01T10:03:34.688Z,60.05
2023-04-01T10:04:34.677Z,60.70
2023-04-01T10:05:34.962Z,60.38
2023-04-01T10:06:34.681Z,61.27
2023-04-01T10:07:34.667Z,59.19
2023-04-01T10:08:34.655Z,60.49
2023-04-01T10:09:34.644Z,61.60
2023-04-01T10:10:34.664Z,61.46
2023-04-01T10:11:34.652Z,60.82
2023-04-01T10:12:34.673Z,62.07
2023-04-01T10:13:34.628Z,61.57
2023-04-01T10:14:34.614Z,62.30
2023-04-01T10:15:34.803Z,61.56
2023-04-01T10:16:34.656Z,59.92
2023-04-01T10:17:34.628Z,60.75
2023-04-01T10:18:34.588Z,62.42
2023-04-01T10:19:34.608Z,61.16
2023-04-01T10:20:34.590Z,60.91
2023-04-01T10:21:34.590Z,60.66
2023-04-01T10:22:34.614Z,60.50
2023-04-01T10:23:34.554Z,58.99
2023-04-01T10:24:34.557Z,59.90
2023-04-01T10:25:35.013Z,60.21
2023-04-01T10:26:34.555Z,60.96
2023-04-01T10:27:34.578Z,60.86
2023-04-01T10:28:34.523Z,61.66
2023-04-01T10:29:34.521Z,62.29
2023-04-01T10:30:34.541Z,59.72
2023-04-01T10:31:34.539Z,61.40
2023-04-01T10:32:34.530Z,62.31
2023-04-01T10:33:34.493Z,62.14
2023-04-01T10:34:34.492Z,61.70
2023-04-01T10:35:34.673Z,60.94
2023-04-01T10:36:35.477Z,62.28
2023-04-01T10:37:34.492Z,61.35
2023-04-01T10:38:34.503Z,60.68
2023-04-01T10:39:34.448Z,60.41
2023-04-01T10:40:34.441Z,60.08
2023-04-01T10:41:34.452Z,60.24
2023-04-01T10:42:34.468Z,60.99
2023-04-01T10:43:34.433Z,60.19
2023-04-01T10:44:34.453Z,59.24
2023-04-01T10:45:34.639Z,61.20
2023-04-01T10:46:34.539Z,58.77
2023-04-01T10:47:34.470Z,57.23
2023-04-01T10:48:34.444Z,58.97
2023-04-01T10:49:34.397Z,60.02
2023-04-01T10:50:34.379Z,60.53
2023-04-01T10:51:34.385Z,61.63
2023-04-01T10:52:34.388Z,60.85
2023-04-01T10:53:34.380Z,62.32
2023-04-01T10:54:34.354Z,59.65
2023-04-01T10:55:34.604Z,59.88
2023-04-01T10:56:34.350Z,60.45
2023-04-01T10:57:34.390Z,59.60
2023-04-01T10:58:34.365Z,60.16
2023-04-01T10:59:34.361Z,60.13
2023-04-01T11:00:34.338Z,60.03
2023-04-01T11:01:34.405Z,75.93
2023-04-01T11:02:34.362Z,64.86
2023-04-01T11:03:34.370Z,60.64
2023-04-01T11:04:34.306Z,61.34
2023-04-01T11:05:34.527Z,61.91
2023-04-01T11:06:34.298Z,60.86
2023-04-01T11:07:34.307Z,61.37
2023-04-01T11:08:34.279Z,59.81
2023-04-01T11:09:34.275Z,59.82
2023-04-01T11:10:34.265Z,61.42
2023-04-01T11:11:34.256Z,60.42
2023-04-01T11:12:34.260Z,59.86
2023-04-01T11:13:34.236Z,60.33
2023-04-01T11:14:34.244Z,61.40
2023-04-01T11:15:34.360Z,60.27
2023-04-01T11:16:34.352Z,60.54
2023-04-01T11:17:34.286Z,60.62
2023-04-01T11:18:34.206Z,59.73
2023-04-01T11:19:34.268Z,59.61
2023-04-01T11:20:34.221Z,61.56
2023-04-01T11:21:34.184Z,59.15
2023-04-01T11:22:35.200Z,58.60
2023-04-01T11:23:34.179Z,59.05
2023-04-01T11:24:34.180Z,58.54
2023-04-01T11:25:34.432Z,57.70
2023-04-01T11:26:34.188Z,59.18
2023-04-01T11:27:34.175Z,59.17
2023-04-01T11:28:34.155Z,60.40
2023-04-01T11:29:34.133Z,62.24
2023-04-01T11:30:34.116Z,60.67
2023-04-01T11:31:34.195Z,63.79
2023-04-01T11:32:34.205Z,61.37
2023-04-01T11:33:34.120Z,61.29
2023-04-01T11:34:34.109Z,61.22
2023-04-01T11:35:34.282Z,61.41
2023-04-01T11:36:34.088Z,61.43
2023-04-01T11:37:34.076Z,61.50
2023-04-01T11:38:34.097Z,61.09
2023-04-01T11:39:34.044Z,62.93
2023-04-01T11:40:34.116Z,60.28
2023-04-01T11:41:34.039Z,59.94
2023-04-01T11:42:34.040Z,60.79
2023-04-01T11:43:34.190Z,60.33
2023-04-01T11:44:34.013Z,60.08
2023-04-01T11:45:34.268Z,61.31
2023-04-01T11:46:34.044Z,60.82
2023-04-01T11:47:34.039Z,61.86
2023-04-01T11:48:34.023Z,60.66
2023-04-01T11:49:33.992Z,62.96
2023-04-01T11:50:33.979Z,60.37
2023-04-01T11:51:33.986Z,61.70
2023-04-01T11:52:33.967Z,60.74
2023-04-01T11:53:33.981Z,61.75
2023-04-01T11:54:33.956Z,60.66
2023-04-01T11:55:34.217Z,60.39
2023-04-01T11:56:33.960Z,60.55
2023-04-01T11:57:33.988Z,61.10
2023-04-01T11:58:34.101Z,60.37
2023-04-01T11:59:33.923Z,61.34
2023-04-01T12:00:33.923Z,60.61
2023-04-01T12:01:33.905Z,62.67
2023-04-01T12:02:33.995Z,60.18
2023-04-01T12:03:34.015Z,61.96
2023-04-01T12:04:33.956Z,62.60
2023-04-01T12:05:34.065Z,63.03
2023-04-01T12:06:33.869Z,62.07
2023-04-01T12:07:33.909Z,60.04
2023-04-01T12:08:33.872Z,61.83
2023-04-01T12:09:33.867Z,62.80
2023-04-01T12:10:33.888Z,61.97
2023-04-01T12:11:33.861Z,60.23
2023-04-01T12:12:33.868Z,59.90
2023-04-01T12:13:33.874Z,60.99
2023-04-01T12:14:33.832Z,59.88
2023-04-01T12:15:34.175Z,60.71
2023-04-01T12:16:33.883Z,63.12
2023-04-01T12:17:33.928Z,61.32
2023-04-01T12:18:33.816Z,61.13
2023-04-01T12:19:33.832Z,61.26
2023-04-01T12:20:33.844Z,60.04
2023-04-01T12:21:33.784Z,61.11
2023-04-01T12:22:34.769Z,60.13
2023-04-01T12:23:33.770Z,60.22
2023-04-01T12:24:33.762Z,60.55
2023-04-01T12:25:33.889Z,60.41
2023-04-01T12:26:33.755Z,61.74
2023-04-01T12:27:33.752Z,60.24
2023-04-01T12:28:33.750Z,61.23
2023-04-01T12:29:33.731Z,61.05
2023-04-01T12:30:33.742Z,62.17
2023-04-01T12:31:33.771Z,61.87
2023-04-01T12:32:33.736Z,61.31
2023-04-01T12:33:34.129Z,58.99
2023-04-01T12:34:33.726Z,60.33
2023-04-01T12:35:33.961Z,60.97
2023-04-01T12:36:33.690Z,61.32
2023-04-01T12:37:33.719Z,62.64
2023-04-01T12:38:33.692Z,61.32
2023-04-01T12:39:33.673Z,61.70
2023-04-01T12:40:34.027Z,60.94
2023-04-01T12:41:33.650Z,61.75
2023-04-01T12:42:33.662Z,61.56
2023-04-01T12:43:33.682Z,60.82
2023-04-01T12:44:33.642Z,61.53
2023-04-01T12:45:33.863Z,59.77
2023-04-01T12:46:33.680Z,60.40
2023-04-01T12:47:33.690Z,59.25
2023-04-01T12:48:33.642Z,60.92
2023-04-01T12:49:33.609Z,60.02
2023-04-01T12:50:33.605Z,60.91
2023-04-01T12:51:33.636Z,60.67
2023-04-01T12:52:33.598Z,61.84